sensor_id;sensor_type;location;lat;lon;timestamp;pressure;altitude;pressure_sealevel;temperature;humidity
85053;BME280;75382;46.706;12.340;2024-01-27T00:00:41;1025.5178254026728;;;2.734375;67.21122122715039
85053;BME280;75382;46.706;12.340;2024-01-27T00:01:41;1025.5763593535387;;;2.72421875;67.16216215448065
85053;BME280;75382;46.706;12.340;2024-01-27T00:02:44;1025.5166990159728;;;2.6986328125;67.27970351516079
85053;BME280;75382;46.706;12.340;2024-01-27T00:03:41;1025.5123086038593;;;2.6935546875;67.219460983513
85053;BME280;75382;46.706;12.340;2024-01-27T00:04:41;1025.5146521233223;;;2.6783203125;67.0560674425523
85053;BME280;75382;46.706;12.340;2024-01-27T00:05:46;1025.4941617467127;;;2.6681640625;67.08275173215186
85053;BME280;75382;46.706;12.340;2024-01-27T00:06:41;1025.5438190190462;;;2.6529296875;67.02140700708071
85053;BME280;75382;46.706;12.340;2024-01-27T00:07:41;1025.559924203873;;;2.6326171875;67.26913581933687
85053;BME280;75382;46.706;12.340;2024-01-27T00:08:41;1025.5203480698892;;;2.6376953125;67.13317679106457
85053;BME280;75382;46.706;12.340;2024-01-27T00:09:41;1025.539216974376;;;2.60703125;66.93771740218588
85053;BME280;75382;46.706;12.340;2024-01-27T00:10:41;1025.5455308873663;;;2.60703125;66.9586266044099
85053;BME280;75382;46.706;12.340;2024-01-27T00:11:41;1025.5378717268156;;;2.581640625;67.09852895187437
85053;BME280;75382;46.706;12.340;2024-01-27T00:12:43;1025.5469502039648;;;2.571484375;66.98310824864711
85053;BME280;75382;46.706;12.340;2024-01-27T00:13:45;1025.5530502045972;;;2.5560546875;66.97733542561751
85053;BME280;75382;46.706;12.340;2024-01-27T00:14:45;1025.5878021628127;;;2.5509765625;67.12336290816879
85053;BME280;75382;46.706;12.340;2024-01-27T00:15:41;1025.5162364447274;;;2.5357421875;66.70509218117067
85053;BME280;75382;46.706;12.340;2024-01-27T00:16:41;1025.5877948510647;;;2.5103515625;66.687047764588
85053;BME280;75382;46.706;12.340;2024-01-27T00:17:41;1025.572683893407;;;2.5001953125;66.5951043820652
85053;BME280;75382;46.706;12.340;2024-01-27T00:18:41;1025.5878556238863;;;2.484765625;66.5824886568432
85053;BME280;75382;46.706;12.340;2024-01-27T00:19:42;1025.573163652302;;;2.459375;66.53273685257527
85053;BME280;75382;46.706;12.340;2024-01-27T00:20:41;1025.5827325322498;;;2.464453125;66.89901252675325
85053;BME280;75382;46.706;12.340;2024-01-27T00:21:41;1025.6468288709154;;;2.4390625;66.71370149755622
85053;BME280;75382;46.706;12.340;2024-01-27T00:22:41;1025.6980941926854;;;2.41875;66.61528802767643
85053;BME280;75382;46.706;12.340;2024-01-27T00:23:42;1025.6829753500554;;;2.4134765625;66.57202979845836
85053;BME280;75382;46.706;12.340;2024-01-27T00:24:43;1025.742170478315;;;2.3931640625;66.54319537388174
85053;BME280;75382;46.706;12.340;2024-01-27T00:25:41;1025.6967030877604;;;2.3880859375;66.58068438525652
85053;BME280;75382;46.706;12.340;2024-01-27T00:26:41;1025.7780206521734;;;2.3626953125;66.63403169080321
85053;BME280;75382;46.706;12.340;2024-01-27T00:27:41;1025.8332430690673;;;2.3525390625;66.68195513946154
85053;BME280;75382;46.706;12.340;2024-01-27T00:28:47;1025.8476948300245;;;2.337109375;66.79944484806101
85053;BME280;75382;46.706;12.340;2024-01-27T00:29:41;1025.7456617130215;;;2.326953125;66.75547176710907
85053;BME280;75382;46.706;12.340;2024-01-27T00:30:41;1025.705373809016;;;2.321875;66.66248530062423
85053;BME280;75382;46.706;12.340;2024-01-27T00:31:43;1025.6918181392039;;;2.3015625;66.49417867014407
85053;BME280;75382;46.706;12.340;2024-01-27T00:32:41;1025.683216722543;;;2.286328125;66.52588189971874
85053;BME280;75382;46.706;12.340;2024-01-27T00:33:41;1025.7316836536193;;;2.276171875;66.51327243813347
85053;BME280;75382;46.706;12.340;2024-01-27T00:34:41;1025.7025842946782;;;2.2607421875;66.53958050973284
85053;BME280;75382;46.706;12.340;2024-01-27T00:35:44;1025.7633271496734;;;2.2505859375;66.46823208289904
85053;BME280;75382;46.706;12.340;2024-01-27T00:36:43;1025.8078223671573;;;2.2302734375;66.72118709258778
85053;BME280;75382;46.706;12.340;2024-01-27T00:37:41;1025.7994413899773;;;2.2251953125;66.50389796824606
85053;BME280;75382;46.706;12.340;2024-01-27T00:38:41;1025.749371380708;;;2.199609375;66.3464369338437
85053;BME280;75382;46.706;12.340;2024-01-27T00:39:41;1025.7491425026851;;;2.19453125;66.58893251501156
85053;BME280;75382;46.706;12.340;2024-01-27T00:40:41;1025.7652163835203;;;2.184375;66.56118919733846
85053;BME280;75382;46.706;12.340;2024-01-27T00:41:41;1025.7474670533534;;;2.1640625;66.5438953329236
85053;BME280;75382;46.706;12.340;2024-01-27T00:42:43;1025.7528275852048;;;2.148828125;66.26718292461015
85053;BME280;75382;46.706;12.340;2024-01-27T00:43:41;1025.7460760562722;;;2.14375;66.28232482379232
85053;BME280;75382;46.706;12.340;2024-01-27T00:44:41;1025.7616833659558;;;2.1232421875;66.30251196096076
85053;BME280;75382;46.706;12.340;2024-01-27T00:45:41;1025.730711018451;;;2.1080078125;66.17245789157701
85053;BME280;75382;46.706;12.340;2024-01-27T00:46:41;1025.7478912944493;;;2.0927734375;66.02512625638742
85053;BME280;75382;46.706;12.340;2024-01-27T00:47:41;1025.710633660865;;;2.0775390625;66.24524587079758
85053;BME280;75382;46.706;12.340;2024-01-27T00:48:41;1025.7446301067798;;;2.05703125;66.11954132111096
85053;BME280;75382;46.706;12.340;2024-01-27T00:49:41;1025.7380532655257;;;2.03671875;66.31334365523506
85053;BME280;75382;46.706;12.340;2024-01-27T00:50:41;1025.7559822695707;;;2.0265625;66.18260036750891
85053;BME280;75382;46.706;12.340;2024-01-27T00:51:41;1025.777632835679;;;2.011328125;66.08498961465695
85053;BME280;75382;46.706;12.340;2024-01-27T00:52:41;1025.7576028405883;;;2.001171875;66.02917166560773
85053;BME280;75382;46.706;12.340;2024-01-27T00:53:42;1025.7915921440115;;;1.99609375;66.17504585076921
85053;BME280;75382;46.706;12.340;2024-01-27T00:54:41;1025.78157634522;;;1.9806640625;66.14625240966947
85053;BME280;75382;46.706;12.340;2024-01-27T00:55:41;1025.755672758793;;;1.9654296875;66.04794387954581
85053;BME280;75382;46.706;12.340;2024-01-27T00:56:41;1025.7945479693838;;;1.9451171875;65.88011493161694
85053;BME280;75382;46.706;12.340;2024-01-27T00:57:41;1025.7565887990913;;;1.9248046875;65.84662831189266
85053;BME280;75382;46.706;12.340;2024-01-27T00:58:41;1025.7805551109427;;;1.904296875;66.05013709607941
85053;BME280;75382;46.706;12.340;2024-01-27T00:59:41;1025.8149441261348;;;1.89921875;65.86071843153597
85053;BME280;75382;46.706;12.340;2024-01-27T01:00:41;1025.857071000761;;;1.883984375;65.84815068807934
85053;BME280;75382;46.706;12.340;2024-01-27T01:01:41;1025.8551996613298;;;1.86875;66.11749737492572
85053;BME280;75382;46.706;12.340;2024-01-27T01:02:41;1025.8849813061902;;;1.8482421875;65.911188540512
85053;BME280;75382;46.706;12.340;2024-01-27T01:03:41;1025.8616828883419;;;1.8380859375;66.04550632089851
85053;BME280;75382;46.706;12.340;2024-01-27T01:04:43;1025.9074677698686;;;1.8279296875;65.97927706859508
85053;BME280;75382;46.706;12.340;2024-01-27T01:05:41;1025.9134950883579;;;1.8228515625;66.05417575304634
85053;BME280;75382;46.706;12.340;2024-01-27T01:06:41;1025.977038437347;;;1.8025390625;66.08045290864848
85053;BME280;75382;46.706;12.340;2024-01-27T01:07:41;1025.9618814235805;;;1.7873046875;65.87922165506411
85053;BME280;75382;46.706;12.340;2024-01-27T01:08:41;1026.0160896816367;;;1.76171875;66.27810965992313
85053;BME280;75382;46.706;12.340;2024-01-27T01:09:41;1026.0315972566702;;;1.76171875;65.84505386725424
85053;BME280;75382;46.706;12.340;2024-01-27T01:10:41;1026.0574141195011;;;1.74140625;65.88719360526389
85053;BME280;75382;46.706;12.340;2024-01-27T01:11:41;1026.079971552731;;;1.726171875;66.12909471114708
85053;BME280;75382;46.706;12.340;2024-01-27T01:12:41;1026.0738931518977;;;1.7056640625;66.02579642290485
85053;BME280;75382;46.706;12.340;2024-01-27T01:13:41;1026.0817870068536;;;1.7005859375;65.97578315086125
85053;BME280;75382;46.706;12.340;2024-01-27T01:14:41;1026.0930872055628;;;1.6904296875;65.99127042513786
85053;BME280;75382;46.706;12.340;2024-01-27T01:15:41;1026.0774854958368;;;1.6751953125;66.01719903686055
85053;BME280;75382;46.706;12.340;2024-01-27T01:16:41;1026.0385732594436;;;1.6498046875;66.03303960812096
85053;BME280;75382;46.706;12.340;2024-01-27T01:17:41;1026.104671014214;;;1.6396484375;65.95062676198349
85053;BME280;75382;46.706;12.340;2024-01-27T01:18:41;1026.1027880625588;;;1.634375;65.83548933163034
85053;BME280;75382;46.706;12.340;2024-01-27T01:19:41;1026.086932234669;;;1.62421875;65.97080095222694
85053;BME280;75382;46.706;12.340;2024-01-27T01:20:41;1026.0866775838394;;;1.60390625;65.82903097348155
85053;BME280;75382;46.706;12.340;2024-01-27T01:21:41;1026.1031104144515;;;1.59375;65.81823457540276
85053;BME280;75382;46.706;12.340;2024-01-27T01:22:41;1026.0905109574555;;;1.59375;65.88158281113495
85053;BME280;75382;46.706;12.340;2024-01-27T01:23:41;1026.1284012939134;;;1.578515625;65.7192914671792
85053;BME280;75382;46.706;12.340;2024-01-27T01:24:41;1026.1460595314184;;;1.5580078125;65.72363293186353
85053;BME280;75382;46.706;12.340;2024-01-27T01:25:41;1026.1590890059624;;;1.5478515625;65.99351406747286
85053;BME280;75382;46.706;12.340;2024-01-27T01:26:41;1026.1843436261238;;;1.5326171875;65.70603123885869
85053;BME280;75382;46.706;12.340;2024-01-27T01:27:41;1026.1980572960736;;;1.5326171875;65.77009624888424
85053;BME280;75382;46.706;12.340;2024-01-27T01:28:41;1026.1705363628892;;;1.5072265625;65.6823162282229
85053;BME280;75382;46.706;12.340;2024-01-27T01:29:41;1026.1595607544077;;;1.48671875;65.65967227824966
85053;BME280;75382;46.706;12.340;2024-01-27T01:30:41;1026.135009665374;;;1.481640625;65.79858060635546
85053;BME280;75382;46.706;12.340;2024-01-27T01:31:41;1026.1780326444173;;;1.461328125;65.8511303117916
85053;BME280;75382;46.706;12.340;2024-01-27T01:32:41;1026.156601563767;;;1.451171875;65.58598725600756
85053;BME280;75382;46.706;12.340;2024-01-27T01:33:41;1026.116052094503;;;1.4359375;65.72558989353966
85053;BME280;75382;46.706;12.340;2024-01-27T01:34:41;1026.1102219856593;;;1.4154296875;65.89144993122264
85053;BME280;75382;46.706;12.340;2024-01-27T01:35:41;1026.1106427988816;;;1.4103515625;65.98210819254092
85053;BME280;75382;46.706;12.340;2024-01-27T01:36:41;1026.1521642012656;;;1.3900390625;65.67385507000594
85053;BME280;75382;46.706;12.340;2024-01-27T01:37:41;1026.1135055268232;;;1.3798828125;65.89436255447514
85053;BME280;75382;46.706;12.340;2024-01-27T01:38:41;1026.1139235290057;;;1.3595703125;65.80156773124871
85053;BME280;75382;46.706;12.340;2024-01-27T01:39:43;1026.0996877291375;;;1.344140625;66.07528282288548
85053;BME280;75382;46.706;12.340;2024-01-27T01:40:41;1026.149893491202;;;1.333984375;65.68005298301549
85053;BME280;75382;46.706;12.340;2024-01-27T01:41:43;1026.1197697756957;;;1.313671875;65.9871899000163
85053;BME280;75382;46.706;12.340;2024-01-27T01:42:41;1026.1602036517065;;;1.303515625;65.96490103813666
85053;BME280;75382;46.706;12.340;2024-01-27T01:43:41;1026.19059995427;;;1.293359375;65.82790411692017
85053;BME280;75382;46.706;12.340;2024-01-27T01:44:41;1026.22451797924;;;1.2576171875;66.07602069649896
85053;BME280;75382;46.706;12.340;2024-01-27T01:45:41;1026.2007786312902;;;1.2525390625;66.05301816787157
85053;BME280;75382;46.706;12.340;2024-01-27T01:46:41;1026.1599360913908;;;1.2423828125;65.86282416374013
85053;BME280;75382;46.706;12.340;2024-01-27T01:47:41;1026.2019900143387;;;1.2271484375;65.96421664422422
85053;BME280;75382;46.706;12.340;2024-01-27T01:48:41;1026.2179975609583;;;1.2169921875;65.61904023551126
85053;BME280;75382;46.706;12.340;2024-01-27T01:49:41;1026.2070105564574;;;1.206640625;65.7474250655695
85053;BME280;75382;46.706;12.340;2024-01-27T01:50:41;1026.2135215649807;;;1.2015625;66.0332556000265
85053;BME280;75382;46.706;12.340;2024-01-27T01:51:41;1026.2425491902961;;;1.186328125;65.95093876935444
85053;BME280;75382;46.706;12.340;2024-01-27T01:52:41;1026.2524336513322;;;1.18125;65.79958634341453
85053;BME280;75382;46.706;12.340;2024-01-27T01:53:41;1026.240767057928;;;1.17109375;65.81001769445989
85053;BME280;75382;46.706;12.340;2024-01-27T01:54:41;1026.2437491873288;;;1.1609375;65.8147016335386
85053;BME280;75382;46.706;12.340;2024-01-27T01:55:43;1026.2662621460058;;;1.155859375;65.93190034719473
85053;BME280;75382;46.706;12.340;2024-01-27T01:56:42;1026.2783320169124;;;1.140625;65.92076021038017
85053;BME280;75382;46.706;12.340;2024-01-27T01:57:42;1026.2471336015974;;;1.1353515625;65.73636180019746
85053;BME280;75382;46.706;12.340;2024-01-27T01:58:42;1026.273851046457;;;1.1201171875;65.97900374923893
85053;BME280;75382;46.706;12.340;2024-01-27T01:59:42;1026.2703208984806;;;1.1099609375;65.77269094213071
85053;BME280;75382;46.706;12.340;2024-01-27T02:00:41;1026.2418157413872;;;1.1048828125;65.66449797958292
85053;BME280;75382;46.706;12.340;2024-01-27T02:01:41;1026.2418157413872;;;1.0947265625;66.03113599519611
85053;BME280;75382;46.706;12.340;2024-01-27T02:02:48;1026.2555113755534;;;1.0998046875;65.96032008807936
85053;BME280;75382;46.706;12.340;2024-01-27T02:03:51;1026.2331270246054;;;1.0794921875;65.98692039556839
85053;BME280;75382;46.706;12.340;2024-01-27T02:04:41;1026.291714159665;;;1.0845703125;65.71699029391145
85053;BME280;75382;46.706;12.340;2024-01-27T02:05:41;1026.3177529137015;;;1.0794921875;66.05054309076604
85053;BME280;75382;46.706;12.340;2024-01-27T02:06:41;1026.3119182324897;;;1.0744140625;66.04550950398261
85053;BME280;75382;46.706;12.340;2024-01-27T02:07:41;1026.307433179431;;;1.05390625;65.8830618023752
85053;BME280;75382;46.706;12.340;2024-01-27T02:08:41;1026.3028287670813;;;1.0744140625;65.74863243359313
85053;BME280;75382;46.706;12.340;2024-01-27T02:09:41;1026.3272397058922;;;1.058984375;65.87263473299942
85053;BME280;75382;46.706;12.340;2024-01-27T02:10:41;1026.3090605484554;;;1.04375;65.89348857027993
85053;BME280;75382;46.706;12.340;2024-01-27T02:11:41;1026.293461640616;;;1.03359375;65.86582203877279
85053;BME280;75382;46.706;12.340;2024-01-27T02:12:41;1026.2967163509793;;;1.04375;65.74757064438244
85053;BME280;75382;46.706;12.340;2024-01-27T02:13:41;1026.3071550562954;;;1.038671875;65.80616522282075
85053;BME280;75382;46.706;12.340;2024-01-27T02:14:41;1026.308216890145;;;1.028515625;65.57867593363837
85053;BME280;75382;46.706;12.340;2024-01-27T02:15:43;1026.3088911599216;;;1.0234375;65.53589708013436
85053;BME280;75382;46.706;12.340;2024-01-27T02:16:41;1026.330720087825;;;1.0234375;65.6965610722905
85053;BME280;75382;46.706;12.340;2024-01-27T02:17:46;1026.352268475635;;;1.018359375;65.71741733837975
85053;BME280;75382;46.706;12.340;2024-01-27T02:18:44;1026.3041248241127;;;1.008203125;65.48525508093945
85053;BME280;75382;46.706;12.340;2024-01-27T02:19:41;1026.2647919936878;;;0.9927734375;65.3986467173628
85053;BME280;75382;46.706;12.340;2024-01-27T02:20:41;1026.3094001129111;;;0.9775390625;65.39724682421341
85053;BME280;75382;46.706;12.340;2024-01-27T02:21:42;1026.246333852522;;;0.9724609375;65.65025653494126
85053;BME280;75382;46.706;12.340;2024-01-27T02:22:43;1026.2396514972174;;;0.9572265625;65.6438071879679
85053;BME280;75382;46.706;12.340;2024-01-27T02:23:43;1026.2565954355955;;;0.9419921875;65.34626877176625
85053;BME280;75382;46.706;12.340;2024-01-27T02:24:41;1026.2790929004664;;;0.9265625;65.57160662160288
85053;BME280;75382;46.706;12.340;2024-01-27T02:25:41;1026.2339272204817;;;0.9265625;65.50692635803387
85053;BME280;75382;46.706;12.340;2024-01-27T02:26:41;1026.2629311487667;;;0.90625;65.56012247044906
85053;BME280;75382;46.706;12.340;2024-01-27T02:27:41;1026.2928888242543;;;0.90625;65.46814259648343
85053;BME280;75382;46.706;12.340;2024-01-27T02:28:41;1026.2467642700585;;;0.891015625;65.2838330052383
85053;BME280;75382;46.706;12.340;2024-01-27T02:29:41;1026.2123163192612;;;0.8859375;65.1699451252153
85053;BME280;75382;46.706;12.340;2024-01-27T02:30:41;1026.2452431699603;;;0.880859375;65.11568348045996
85053;BME280;75382;46.706;12.340;2024-01-27T02:31:41;1026.3307964640412;;;0.860546875;65.15132968991195
85053;BME280;75382;46.706;12.340;2024-01-27T02:32:41;1026.2953917599177;;;0.8451171875;65.04353456367976
85053;BME280;75382;46.706;12.340;2024-01-27T02:33:41;1026.3029557124291;;;0.8451171875;65.15132968991195
85053;BME280;75382;46.706;12.340;2024-01-27T02:34:41;1026.3071654358625;;;0.8349609375;65.09639215090102
85053;BME280;75382;46.706;12.340;2024-01-27T02:35:41;1026.2968321373423;;;0.8248046875;65.28432344705894
85053;BME280;75382;46.706;12.340;2024-01-27T02:36:41;1026.3023829928443;;;0.8146484375;65.07308756034284
85053;BME280;75382;46.706;12.340;2024-01-27T02:37:41;1026.226025761454;;;0.8095703125;65.01884840288885
85053;BME280;75382;46.706;12.340;2024-01-27T02:38:41;1026.2439194450628;;;0.7994140625;65.0131131788408
85053;BME280;75382;46.706;12.340;2024-01-27T02:39:41;1026.2901370821096;;;0.7943359375;65.3522682907319
85053;BME280;75382;46.706;12.340;2024-01-27T02:40:41;1026.26870362104;;;0.783984375;65.11411853833386
85053;BME280;75382;46.706;12.340;2024-01-27T02:41:41;1026.3295595201257;;;0.77890625;64.97469729909314
85053;BME280;75382;46.706;12.340;2024-01-27T02:42:43;1026.330898091297;;;0.77890625;65.26500213842169
85053;BME280;75382;46.706;12.340;2024-01-27T02:43:41;1026.330898091297;;;0.763671875;65.06492555909973
85053;BME280;75382;46.706;12.340;2024-01-27T02:44:41;1026.3521371076563;;;0.753515625;64.9621919518857
85053;BME280;75382;46.706;12.340;2024-01-27T02:45:41;1026.3420884603936;;;0.73828125;65.15549019041286
85053;BME280;75382;46.706;12.340;2024-01-27T02:46:43;1026.3641917700245;;;0.7484375;64.90692361698626
85053;BME280;75382;46.706;12.340;2024-01-27T02:47:41;1026.2939607759677;;;0.73828125;64.82573506473908
85053;BME280;75382;46.706;12.340;2024-01-27T02:48:41;1026.298930563199;;;0.723046875;64.90587584185722
85053;BME280;75382;46.706;12.340;2024-01-27T02:49:41;1026.3103158851186;;;0.723046875;65.07152788008486
85053;BME280;75382;46.706;12.340;2024-01-27T02:50:41;1026.3155732195971;;;0.7076171875;65.07726279898627
85053;BME280;75382;46.706;12.340;2024-01-27T02:51:41;1026.3106939146626;;;0.6974609375;64.69905177601294
85053;BME280;75382;46.706;12.340;2024-01-27T02:52:41;1026.342263904237;;;0.6923828125;64.75798098540105
85053;BME280;75382;46.706;12.340;2024-01-27T02:53:41;1026.3243732569063;;;0.6873046875;64.86540053971896
85053;BME280;75382;46.706;12.340;2024-01-27T02:54:41;1026.351443915979;;;0.6822265625;64.80039958171584
85053;BME280;75382;46.706;12.340;2024-01-27T02:56:00;1026.3602431770328;;;0.6822265625;64.91320250384501
85053;BME280;75382;46.706;12.340;2024-01-27T02:57:01;1026.3478993997392;;;0.6669921875;64.79432414201223
85053;BME280;75382;46.706;12.340;2024-01-27T02:58:00;1026.3206267345563;;;0.6720703125;64.64849067715093
85053;BME280;75382;46.706;12.340;2024-01-27T02:59:00;1026.2845559581685;;;0.6568359375;64.52892788357742
85053;BME280;75382;46.706;12.340;2024-01-27T03:00:00;1026.3193752266866;;;0.64140625;64.71143392000317
85053;BME280;75382;46.706;12.340;2024-01-27T03:01:00;1026.2728801267422;;;0.64140625;64.8030237887113
85053;BME280;75382;46.706;12.340;2024-01-27T03:02:00;1026.3148704787607;;;0.636328125;64.86629530337974
85053;BME280;75382;46.706;12.340;2024-01-27T03:03:03;1026.301860495074;;;0.6109375;64.51038048631182
85053;BME280;75382;46.706;12.340;2024-01-27T03:04:00;1026.2824325265306;;;0.60078125;64.63395361227919
85053;BME280;75382;46.706;12.340;2024-01-27T03:05:00;1026.3364693241056;;;0.60078125;64.60633299444123
85053;BME280;75382;46.706;12.340;2024-01-27T03:06:00;1026.2558274848736;;;0.585546875;64.44974298671818
85053;BME280;75382;46.706;12.340;2024-01-27T03:07:00;1026.3163665162367;;;0.575390625;64.58913332979978
85053;BME280;75382;46.706;12.340;2024-01-27T03:08:01;1026.3235365586306;;;0.5650390625;64.36083068064539
85053;BME280;75382;46.706;12.340;2024-01-27T03:09:00;1026.2809634196178;;;0.5548828125;64.4847333245306
85053;BME280;75382;46.706;12.340;2024-01-27T03:10:04;1026.2817122528722;;;0.5498046875;64.65138300381705
85053;BME280;75382;46.706;12.340;2024-01-27T03:11:00;1026.267078078815;;;0.5396484375;64.47259849127788
85053;BME280;75382;46.706;12.340;2024-01-27T03:12:03;1026.2199994303846;;;0.5142578125;64.3850396881945
85053;BME280;75382;46.706;12.340;2024-01-27T03:13:00;1026.1888114246176;;;0.5091796875;64.4382255608479
85053;BME280;75382;46.706;12.340;2024-01-27T03:14:00;1026.2038142276997;;;0.498828125;64.50252101084935
85053;BME280;75382;46.706;12.340;2024-01-27T03:15:00;1026.2077309072447;;;0.478515625;64.44797815913589
85053;BME280;75382;46.706;12.340;2024-01-27T03:16:00;1026.203518148846;;;0.478515625;64.52774683403545
85053;BME280;75382;46.706;12.340;2024-01-27T03:17:00;1026.1733734039758;;;0.4734375;64.71590351321618
85053;BME280;75382;46.706;12.340;2024-01-27T03:18:01;1026.2214831718643;;;0.458203125;64.41362255910559
85053;BME280;75382;46.706;12.340;2024-01-27T03:19:00;1026.1639866159162;;;0.458203125;64.67213359775722
85053;BME280;75382;46.706;12.340;2024-01-27T03:20:00;1026.1958376180582;;;0.448046875;64.59569759386821
85053;BME280;75382;46.706;12.340;2024-01-27T03:21:00;1026.2469005400521;;;0.44296875;64.47687691135181
85053;BME280;75382;46.706;12.340;2024-01-27T03:22:00;1026.2030729585742;;;0.4275390625;64.41661637341916
85053;BME280;75382;46.706;12.340;2024-01-27T03:23:00;1026.2245055607627;;;0.4328125;64.62664014569046
85053;BME280;75382;46.706;12.340;2024-01-27T03:24:00;1026.1868159959367;;;0.4173828125;64.69160336577924
85053;BME280;75382;46.706;12.340;2024-01-27T03:25:00;1026.2160785334063;;;0.4173828125;64.47585517439373
85053;BME280;75382;46.706;12.340;2024-01-27T03:26:07;1026.1874797425257;;;0.4173828125;64.5990305906608
85053;BME280;75382;46.706;12.340;2024-01-27T03:27:00;1026.2661755945312;;;0.4224609375;64.62629774852762
85053;BME280;75382;46.706;12.340;2024-01-27T03:28:03;1026.249255730828;;;0.4173828125;64.44286279126995
85053;BME280;75382;46.706;12.340;2024-01-27T03:29:00;1026.214530325479;;;0.4123046875;64.50175876474675
85053;BME280;75382;46.706;12.340;2024-01-27T03:30:01;1026.2135679142489;;;0.4021484375;64.44722707984165
85053;BME280;75382;46.706;12.340;2024-01-27T03:31:00;1026.2259099234543;;;0.4021484375;64.38833094981908
85053;BME280;75382;46.706;12.340;2024-01-27T03:32:00;1026.1768415867139;;;0.3970703125;64.51757276929118
85053;BME280;75382;46.706;12.340;2024-01-27T03:33:03;1026.1615473628926;;;0.4021484375;64.4468867497012
85053;BME280;75382;46.706;12.340;2024-01-27T03:34:01;1026.1173572190435;;;0.3869140625;64.60843155403604
85053;BME280;75382;46.706;12.340;2024-01-27T03:35:01;1026.1203101878439;;;0.3767578125;64.3708045716913
85053;BME280;75382;46.706;12.340;2024-01-27T03:36:09;1026.1469828921088;;;0.3666015625;64.67704623168208
85053;BME280;75382;46.706;12.340;2024-01-27T03:37:00;1026.1014668440303;;;0.3666015625;64.53166628002154
85053;BME280;75382;46.706;12.340;2024-01-27T03:38:00;1026.0647425923114;;;0.3615234375;64.43944688751667
85053;BME280;75382;46.706;12.340;2024-01-27T03:39:00;1026.0784107396385;;;0.35625;64.63832762538868
85053;BME280;75382;46.706;12.340;2024-01-27T03:40:00;1026.1791946362168;;;0.35625;64.4616662861012
85053;BME280;75382;46.706;12.340;2024-01-27T03:41:00;1026.101532763983;;;0.351171875;64.40175463785698
85053;BME280;75382;46.706;12.340;2024-01-27T03:42:01;1026.1252523436706;;;0.341015625;64.62148993091738
85053;BME280;75382;46.706;12.340;2024-01-27T03:43:00;1026.175643494083;;;0.341015625;64.4653476551507
85053;BME280;75382;46.706;12.340;2024-01-27T03:44:00;1026.1418704064884;;;0.3359375;64.38390210198015
85053;BME280;75382;46.706;12.340;2024-01-27T03:45:00;1026.1103233391023;;;0.3359375;64.39535049077074
85053;BME280;75382;46.706;12.340;2024-01-27T03:46:04;1025.654151727882;;;0.34609375;64.48654400413758
85053;BME280;75382;46.706;12.340;2024-01-27T03:47:00;1026.096732844143;;;0.3359375;64.27082901997748
85053;BME280;75382;46.706;12.340;2024-01-27T03:48:00;1026.0941448040162;;;0.330859375;64.53431875803764
85053;BME280;75382;46.706;12.340;2024-01-27T03:49:00;1026.1185265864538;;;0.32578125;64.45826007529563
85053;BME280;75382;46.706;12.340;2024-01-27T03:50:01;1026.1607883776287;;;0.320703125;64.62011966028098